Hauptseite
METAR-TAF:

METAR-TAF

Flughäfen :

Flughafen Khartum

Khartum, Sudan

Breite: 15-36N, Länge: 032-33E, Höhe: 382 m

Beobachtung

Neuester Wetterbericht von vor 35 Minuten, um 01:00 UTC
Wind 9 kt aus Nord
Temperatur 33°C
Luftfeuchtigkeit 12%
Luftdruck 1007 hPa
Sichtweite 10 km oder mehr
keine Wolken unter 1500 m und keine Kumulonimbus oder Gewitterwolken

METAR: HSSS 070100Z 36009KT CAVOK 33/00 Q1007 NOSIG

Zeit: 03:35 (01:35 UTC)

Prognose

Neuester Wetterbericht von vor 2 Stunden und 35 Minuten, um 23:00 UTC
Gültige Prognose vom 07 um 00 UTC bis 08 um 06 UTC
Wind 6 kt aus Nord/Nordwest, Böen bis zu 16 kt
Sichtweite 10 km oder mehr
keine Wolken unter 1500 m und keine Kumulonimbus oder Gewitterwolken
Zeitweise
vom 07 um 03 UTC bis 07 um 09 UTC
Wind 13 kt aus Süd

TAF: HSSS 062300Z 0700/0806 34006G16KT CAVOK TEMPO 0703/0709 18013KT

Wetterbeobachtungen und Prognosen von mehr als 4000 Flughäfen (METAR und TAF Bericht).

Die verfügbaren Stationen werden durch gelbe und rote Markierungen auf der Karte dargestellt.

Führen Sie die Maus auf sie, um den Namen der Station zu sehen.

Darauf klicken, um die Beobachtung von Wetterbeobachtungen und Prognosen zu sehen.

Um die Karte zu ändern : klicken Sie auf den grünen Tasten mit einem schwarzen Kreuz Zum Vergrößern, auf den grünen Button mit einem Gedankenstrich zu verkleinern, oder auf die grünen Pfeile für benachbarte Karten.


METAR-TAF: